Detall de PIREP

Printer-friendly versionPDF version

[2014/05/30 07:49:00]
Flight IATA:CT2307
Pilot Number:042
Company ICAO:CAT
Aircraft Type:F100/A
PAX:48
Aircraft Registration:PFJ
Departing Airport: LIRP
Destination Airport: LIEA
Alternate Airport:LIEO
Online: VATSIM
Route:ELB UL12 TINTO UQ710 GITRI UZ924 KOLUS M603 MOROB
Flight Level:F250
No Slew and time accel
No pause
Crash detect
Detect pilot in Cockpit between each 30 and 45 minutes
07:49 Zero fuel Weight: 81826 Lbs, Fuel Weight: 17032 Lbs
07:49 VATSIM:LIRP 300645Z 12004KT 9999 FEW030 15/13 Q1013 NOSIG
07:49 VATSIM:LIEA 300650Z 29009KT 250V330 9999 SCT022 19/15 Q1016
07:51 Parking Brakes off
07:54 Take-off
07:54 Take off Weight: 98473 Lbs
07:54 Wind: 120º @ 004 Knots Heading: 037º
07:54 POS N43º 41´ 12´´ E010º 23´ 50´´
07:54 Gear Up: 165 Knots
07:54 Flaps:2 at 165 Knots
07:54 Flaps:1 at 166 Knots
07:55 Flaps:0 at 179 Knots
08:05 TOC
08:05 Fuel Weight: 15055 Lb
08:09 Wind:086º@004 Knots Heading: 158º Ground Speed: 448 Knots Altitude 24993 ft
08:24 Wind:231º@026 Knots Heading: 233º Ground Speed: 430 Knots Altitude 25006 ft
08:31 TOD
08:31 Fuel Weight: 12655 Lb
08:39 Wind:261º@021 Knots Heading: 264º Ground Speed: 233 Knots Altitude 9376 ft
08:44 Flaps:1 at 202 Knots
08:45 Gear Down: 179 Knots
08:45 Flaps:2 at 179 Knots
08:45 Flaps:3 at 176 Knots
08:48 TouchDown:Rate -333 ft/min Speed: 141 Knots
08:48 VATSIM:LIEA 300820Z 28010KT 250V320 9999 SCT018 20/15 Q1016
08:48 Land
08:48 Wind:314º@008 Knots
08:48 Heading: 207º
08:48 Flight Duration: 00:54
08:48 Landing Weight: 93316 Lbs
08:48 POS N40º 37´ 32´´ E008º 17´ 14´´
08:49 Parking brakes on
08:49 Block to Block Duration: 00:58
08:49 Final Fuel: 11452 Lbls
08:49 Spent Fuel: 5579 Lbls
08:49 Flight Length: 203 NM
08:49 TOD Land Length: 54 NM

Exportar CSV

Powered by Drupal - Modified by Danger4k